createdAt,value
2019-03-05T00:03:50.577Z,2.13
2019-03-05T00:08:57.834Z,3.03
2019-03-05T00:14:05.893Z,2.64
2019-03-05T00:19:27.077Z,2.05
2019-03-05T00:24:14.361Z,1.77
2019-03-05T00:29:35.543Z,1.88
2019-03-05T00:34:35.687Z,1.76
2019-03-05T00:39:23.025Z,1.22
2019-03-05T00:44:30.276Z,0.99
2019-03-05T00:49:50.369Z,1.27
2019-03-05T00:54:38.588Z,1.07
2019-03-05T00:59:45.893Z,0.96
2019-03-05T01:04:53.223Z,1.08
2019-03-05T01:10:13.461Z,1.26
2019-03-05T01:15:00.664Z,1.57
2019-03-05T01:20:20.889Z,1.37
2019-03-05T01:25:08.108Z,1.38
2019-03-05T01:30:15.462Z,1.35
2019-03-05T01:35:22.703Z,1.35
2019-03-05T01:45:30.844Z,1.15
2019-03-05T01:50:39.027Z,1.20
2019-03-05T01:55:47.314Z,1.41
2019-03-05T02:01:07.534Z,1.33
2019-03-05T02:05:55.683Z,1.35
2019-03-05T02:11:03.276Z,1.39
2019-03-05T02:16:23.401Z,1.55
2019-03-05T02:21:23.512Z,1.56
2019-03-05T02:26:11.592Z,1.37
2019-03-05T02:31:21.019Z,1.58
2019-03-05T02:36:29.247Z,1.17
2019-03-05T02:41:36.581Z,1.02
2019-03-05T02:46:43.654Z,1.41
2019-03-05T02:51:52.049Z,1.39
2019-03-05T02:56:59.287Z,1.37
2019-03-05T03:02:06.563Z,1.64
2019-03-05T03:07:14.621Z,1.52
2019-03-05T03:12:22.816Z,1.53
2019-03-05T03:17:32.085Z,1.29
2019-03-05T03:22:39.374Z,1.46
2019-03-05T03:28:00.471Z,1.33
2019-03-05T03:32:47.901Z,1.47
2019-03-05T03:37:54.977Z,1.23
2019-03-05T03:43:03.229Z,1.59
2019-03-05T03:48:11.417Z,1.50
2019-03-05T03:53:18.765Z,1.36
2019-03-05T03:58:25.815Z,1.32
2019-03-05T04:03:34.956Z,1.39
2019-03-05T04:08:43.073Z,1.38
2019-03-05T04:13:51.465Z,1.23
2019-03-05T04:18:59.527Z,1.29
2019-03-05T04:24:07.719Z,1.10
2019-03-05T04:29:15.945Z,1.67
2019-03-05T04:34:23.313Z,1.35
2019-03-05T04:39:30.456Z,1.30
2019-03-05T04:44:38.680Z,1.84
2019-03-05T04:49:46.747Z,1.11
2019-03-05T04:54:54.945Z,1.44
2019-03-05T05:00:15.916Z,1.32
2019-03-05T05:05:04.159Z,1.51
2019-03-05T05:10:12.197Z,1.29
2019-03-05T05:15:20.468Z,1.43
2019-03-05T05:20:27.670Z,1.00
2019-03-05T05:25:35.145Z,1.09
2019-03-05T05:31:48.142Z,1.47
2019-03-05T05:36:55.263Z,1.14
2019-03-05T05:42:03.459Z,1.14
2019-03-05T05:47:10.876Z,1.17
2019-03-05T05:52:19.050Z,1.38
2019-03-05T05:57:26.346Z,1.21
2019-03-05T06:02:34.568Z,0.72
2019-03-05T06:07:41.985Z,1.72
2019-03-05T06:13:54.979Z,1.24
2019-03-05T06:19:02.284Z,1.08
2019-03-05T06:24:10.225Z,1.32
2019-03-05T06:29:18.535Z,1.23
2019-03-05T06:34:26.585Z,0.90
2019-03-05T06:39:33.997Z,1.58
2019-03-05T06:44:42.194Z,1.21
2019-03-05T06:49:53.903Z,0.91
2019-03-05T06:54:50.972Z,0.95
2019-03-05T06:59:59.153Z,1.07
2019-03-05T07:05:07.362Z,2.19
2019-03-05T07:10:14.725Z,1.05
2019-03-05T07:15:21.935Z,1.16
2019-03-05T07:20:29.187Z,1.24
2019-03-05T07:25:37.267Z,1.47
2019-03-05T07:30:45.592Z,1.34
2019-03-05T07:35:53.820Z,1.81
2019-03-05T07:41:01.295Z,1.59
2019-03-05T07:46:08.432Z,2.07
2019-03-05T07:51:16.673Z,1.44
2019-03-05T07:56:37.624Z,1.55
2019-03-05T08:01:25.908Z,1.58
2019-03-05T08:06:33.152Z,1.75
2019-03-05T08:11:53.407Z,1.75
2019-03-05T08:16:40.594Z,1.68
2019-03-05T08:21:48.066Z,1.55
2019-03-05T08:26:55.317Z,1.95
2019-03-05T08:32:02.675Z,1.79
2019-03-05T08:37:09.920Z,1.82
2019-03-05T08:42:17.137Z,1.78
2019-03-05T08:47:25.305Z,2.22
2019-03-05T08:52:32.677Z,1.54
2019-03-05T08:57:39.973Z,2.20
2019-03-05T09:02:48.926Z,1.94
2019-03-05T09:07:54.472Z,1.91
2019-03-05T09:13:01.712Z,1.83
2019-03-05T09:18:09.967Z,1.94
2019-03-05T09:23:17.355Z,1.69
2019-03-05T09:28:26.839Z,2.01
2019-03-05T09:33:34.129Z,1.77
2019-03-05T09:38:41.314Z,1.87
2019-03-05T09:43:48.549Z,2.12
2019-03-05T09:48:56.693Z,1.99
2019-03-05T09:54:04.988Z,1.64
2019-03-05T09:59:12.287Z,1.89
2019-03-05T10:04:19.774Z,1.97
2019-03-05T10:09:27.031Z,2.18
2019-03-05T10:14:34.421Z,1.71
2019-03-05T10:24:48.441Z,1.72
2019-03-05T10:30:08.380Z,1.71
2019-03-05T10:34:56.841Z,1.58
2019-03-05T10:40:04.063Z,1.94
2019-03-05T10:45:11.365Z,1.62
2019-03-05T10:50:19.492Z,1.95
2019-03-05T11:00:32.747Z,1.52
2019-03-05T11:05:40.004Z,1.44
2019-03-05T11:10:48.099Z,1.57
2019-03-05T11:15:56.506Z,1.79
2019-03-05T11:21:03.773Z,1.15
2019-03-05T11:26:28.994Z,1.96
2019-03-05T11:31:16.072Z,1.26
2019-03-05T11:36:24.470Z,1.49
2019-03-05T11:41:31.773Z,1.96
2019-03-05T11:46:39.062Z,2.02
2019-03-05T11:51:59.055Z,1.75
2019-03-05T11:56:47.427Z,1.86
2019-03-05T12:01:55.501Z,1.95
2019-03-05T12:07:03.733Z,1.39
2019-03-05T12:12:12.011Z,1.47
2019-03-05T12:17:19.424Z,1.53
2019-03-05T12:22:27.961Z,1.36
2019-03-05T12:28:42.232Z,1.78
2019-03-05T12:33:47.099Z,1.31
2019-03-05T12:38:57.621Z,1.25
2019-03-05T12:44:05.483Z,1.27
2019-03-05T12:49:12.052Z,1.46
2019-03-05T12:54:20.090Z,2.32
2019-03-05T12:59:28.469Z,1.68
2019-03-05T13:04:35.684Z,1.34
2019-03-05T13:09:45.469Z,1.70
2019-03-05T13:14:51.106Z,1.34
2019-03-05T13:19:59.379Z,2.26
2019-03-05T13:25:06.490Z,1.96
2019-03-05T13:30:14.865Z,2.01
2019-03-05T13:35:25.521Z,1.09
2019-03-05T13:40:30.273Z,1.32
2019-03-05T13:45:36.538Z,1.06
2019-03-05T13:50:44.851Z,1.34
2019-03-05T13:55:52.062Z,1.45
2019-03-05T14:00:59.265Z,1.58
2019-03-05T14:06:07.554Z,1.32
2019-03-05T14:11:15.214Z,1.12
2019-03-05T14:16:22.540Z,1.49
2019-03-05T14:21:30.145Z,1.42
2019-03-05T14:26:37.430Z,1.32
2019-03-05T14:31:57.601Z,1.40
2019-03-05T14:36:45.710Z,1.91
2019-03-05T14:41:54.082Z,1.51
2019-03-05T14:47:14.105Z,1.31
2019-03-05T14:52:02.469Z,1.21
2019-03-05T14:57:09.551Z,1.18
2019-03-05T15:02:20.192Z,0.95
2019-03-05T15:07:27.425Z,1.04
2019-03-05T15:12:34.984Z,1.13
2019-03-05T15:17:42.177Z,1.03
2019-03-05T15:22:50.521Z,1.20
2019-03-05T15:28:11.606Z,1.13
2019-03-05T15:32:59.156Z,1.08
2019-03-05T15:38:07.428Z,1.14
2019-03-05T15:43:28.359Z,1.71
2019-03-05T15:48:16.348Z,1.58
2019-03-05T15:53:27.517Z,1.18
2019-03-05T15:58:31.833Z,1.40
2019-03-05T16:03:40.176Z,1.36
2019-03-05T16:08:47.325Z,1.13
2019-03-05T16:13:56.366Z,1.07
2019-03-05T16:19:03.185Z,1.57
2019-03-05T16:24:23.471Z,1.28
2019-03-05T16:29:10.541Z,1.22
2019-03-05T16:34:18.871Z,1.39
2019-03-05T16:39:27.455Z,1.78
2019-03-05T16:44:35.869Z,1.34
2019-03-05T16:49:40.665Z,1.82
2019-03-05T16:54:47.912Z,1.61
2019-03-05T16:59:55.118Z,1.61
2019-03-05T17:05:02.281Z,1.58
2019-03-05T17:10:10.419Z,1.37
2019-03-05T17:15:31.453Z,1.56
2019-03-05T17:20:19.654Z,2.01
2019-03-05T17:25:40.016Z,1.68
2019-03-05T17:35:28.214Z,1.46
2019-03-05T17:40:36.470Z,2.06
2019-03-05T17:50:57.461Z,2.24
2019-03-05T17:55:57.774Z,1.99
2019-03-05T18:00:45.065Z,2.20
2019-03-05T18:10:57.392Z,2.38
2019-03-05T18:16:04.775Z,2.20
2019-03-05T18:21:24.778Z,1.96
2019-03-05T18:26:25.200Z,1.58
2019-03-05T18:31:25.365Z,2.41
2019-03-05T18:36:25.595Z,2.19
2019-03-05T18:41:14.932Z,2.13
2019-03-05T18:46:13.771Z,1.94
2019-03-05T18:51:21.033Z,2.44
2019-03-05T18:56:29.302Z,2.46
2019-03-05T19:01:37.542Z,1.59
2019-03-05T19:06:45.587Z,1.93
2019-03-05T19:11:53.791Z,1.48
2019-03-05T19:17:00.984Z,1.27
2019-03-05T19:22:09.234Z,1.89
2019-03-05T19:27:25.689Z,1.34
2019-03-05T19:32:23.665Z,1.48
2019-03-05T19:37:31.907Z,1.35
2019-03-05T19:42:39.117Z,1.61
2019-03-05T19:48:00.656Z,2.15
2019-03-05T19:53:01.054Z,2.06
2019-03-05T19:57:48.614Z,1.95
2019-03-05T20:03:08.695Z,1.92
2019-03-05T20:07:56.110Z,1.92
2019-03-05T20:13:17.043Z,2.12
2019-03-05T20:18:04.141Z,1.84
2019-03-05T20:23:11.185Z,2.64
2019-03-05T20:28:31.602Z,1.82
2019-03-05T20:33:18.794Z,1.61
2019-03-05T20:38:26.247Z,2.93
2019-03-05T20:43:33.308Z,2.29
2019-03-05T20:48:40.913Z,2.13
2019-03-05T20:53:48.183Z,2.03
2019-03-05T20:58:55.376Z,2.16
2019-03-05T21:04:16.515Z,2.39
2019-03-05T21:09:03.989Z,2.35
2019-03-05T21:14:11.201Z,1.83
2019-03-05T21:19:18.470Z,2.18
2019-03-05T21:24:25.702Z,2.55
2019-03-05T21:29:32.959Z,2.13
2019-03-05T21:34:41.237Z,2.25
2019-03-05T21:39:48.475Z,2.56
2019-03-05T21:44:56.681Z,2.65
2019-03-05T21:50:05.429Z,3.18
2019-03-05T21:55:12.618Z,2.76
2019-03-05T22:00:20.020Z,3.48
2019-03-05T22:05:27.222Z,3.57
2019-03-05T22:10:34.582Z,4.03
2019-03-05T22:15:41.817Z,4.39
2019-03-05T22:20:49.807Z,4.69
2019-03-05T22:25:58.042Z,5.24
2019-03-05T22:31:06.522Z,5.48
2019-03-05T22:36:14.871Z,6.15
2019-03-05T22:41:35.132Z,6.38
2019-03-05T22:46:22.369Z,7.33
2019-03-05T22:51:29.802Z,6.83
2019-03-05T22:56:37.113Z,7.31
2019-03-05T23:01:44.449Z,7.32
2019-03-05T23:06:52.554Z,7.86
2019-03-05T23:12:13.711Z,7.81
2019-03-05T23:17:01.948Z,8.58
2019-03-05T23:22:22.444Z,7.72
2019-03-05T23:27:22.582Z,8.59
2019-03-05T23:32:22.735Z,7.97
2019-03-05T23:37:11.020Z,7.40
2019-03-05T23:42:18.286Z,7.61
2019-03-05T23:47:25.401Z,7.59
2019-03-05T23:48:33.177Z,9.57
2019-03-05T23:53:53.339Z,7.49
2019-03-05T23:58:41.467Z,7.20
